sensor_id;sensor_type;location;lat;lon;timestamp;P1;durP1;ratioP1;P2;durP2;ratioP2
51495;SDS011;37572;52.094;4.870;2023-04-03T00:02:07;0.75;;;0.10;;
51495;SDS011;37572;52.094;4.870;2023-04-03T00:04:32;0.50;;;0.30;;
51495;SDS011;37572;52.094;4.870;2023-04-03T00:06:57;0.60;;;0.30;;
51495;SDS011;37572;52.094;4.870;2023-04-03T00:09:23;0.60;;;0.28;;
51495;SDS011;37572;52.094;4.870;2023-04-03T00:11:48;0.70;;;0.20;;
51495;SDS011;37572;52.094;4.870;2023-04-03T00:14:13;0.33;;;0.10;;
51495;SDS011;37572;52.094;4.870;2023-04-03T00:16:39;0.28;;;0.10;;
51495;SDS011;37572;52.094;4.870;2023-04-03T00:19:04;0.80;;;0.20;;
51495;SDS011;37572;52.094;4.870;2023-04-03T00:21:30;0.90;;;0.50;;
51495;SDS011;37572;52.094;4.870;2023-04-03T00:23:55;0.40;;;0.20;;
51495;SDS011;37572;52.094;4.870;2023-04-03T00:26:20;0.70;;;0.33;;
51495;SDS011;37572;52.094;4.870;2023-04-03T00:28:46;0.43;;;0.20;;
51495;SDS011;37572;52.094;4.870;2023-04-03T00:31:13;0.80;;;0.20;;
51495;SDS011;37572;52.094;4.870;2023-04-03T00:33:39;1.00;;;0.20;;
51495;SDS011;37572;52.094;4.870;2023-04-03T00:36:08;0.90;;;0.40;;
51495;SDS011;37572;52.094;4.870;2023-04-03T00:38:35;0.73;;;0.20;;
51495;SDS011;37572;52.094;4.870;2023-04-03T00:41:00;0.30;;;0.10;;
51495;SDS011;37572;52.094;4.870;2023-04-03T00:43:26;0.47;;;0.10;;
51495;SDS011;37572;52.094;4.870;2023-04-03T00:45:53;0.40;;;0.13;;
51495;SDS011;37572;52.094;4.870;2023-04-03T00:48:21;0.77;;;0.20;;
51495;SDS011;37572;52.094;4.870;2023-04-03T00:51:09;0.70;;;0.22;;
51495;SDS011;37572;52.094;4.870;2023-04-03T00:53:40;0.50;;;0.10;;
51495;SDS011;37572;52.094;4.870;2023-04-03T00:56:10;0.70;;;0.40;;
51495;SDS011;37572;52.094;4.870;2023-04-03T00:58:40;0.90;;;0.20;;
51495;SDS011;37572;52.094;4.870;2023-04-03T01:01:14;0.75;;;0.25;;
51495;SDS011;37572;52.094;4.870;2023-04-03T01:03:43;0.40;;;0.20;;
51495;SDS011;37572;52.094;4.870;2023-04-03T01:06:08;0.93;;;0.30;;
51495;SDS011;37572;52.094;4.870;2023-04-03T01:08:34;0.40;;;0.10;;
51495;SDS011;37572;52.094;4.870;2023-04-03T01:11:00;0.95;;;0.20;;
51495;SDS011;37572;52.094;4.870;2023-04-03T01:13:30;1.00;;;0.20;;
51495;SDS011;37572;52.094;4.870;2023-04-03T01:15:57;0.70;;;0.20;;
51495;SDS011;37572;52.094;4.870;2023-04-03T01:18:25;0.57;;;0.20;;
51495;SDS011;37572;52.094;4.870;2023-04-03T01:26:36;0.35;;;0.10;;
51495;SDS011;37572;52.094;4.870;2023-04-03T01:29:02;0.40;;;0.15;;
51495;SDS011;37572;52.094;4.870;2023-04-03T01:31:30;0.60;;;0.20;;
51495;SDS011;37572;52.094;4.870;2023-04-03T01:34:00;1.17;;;0.32;;
51495;SDS011;37572;52.094;4.870;2023-04-03T01:36:27;1.27;;;0.30;;
51495;SDS011;37572;52.094;4.870;2023-04-03T01:38:54;0.93;;;0.25;;
51495;SDS011;37572;52.094;4.870;2023-04-03T01:41:21;0.38;;;0.20;;
51495;SDS011;37572;52.094;4.870;2023-04-03T01:43:47;0.80;;;0.40;;
51495;SDS011;37572;52.094;4.870;2023-04-03T01:46:14;0.63;;;0.20;;
51495;SDS011;37572;52.094;4.870;2023-04-03T01:48:40;0.80;;;0.30;;
51495;SDS011;37572;52.094;4.870;2023-04-03T01:51:05;0.77;;;0.30;;
51495;SDS011;37572;52.094;4.870;2023-04-03T01:53:31;0.63;;;0.20;;
51495;SDS011;37572;52.094;4.870;2023-04-03T01:55:56;0.70;;;0.20;;
51495;SDS011;37572;52.094;4.870;2023-04-03T01:58:21;0.70;;;0.20;;
51495;SDS011;37572;52.094;4.870;2023-04-03T02:00:46;0.83;;;0.30;;
51495;SDS011;37572;52.094;4.870;2023-04-03T02:03:12;0.82;;;0.30;;
51495;SDS011;37572;52.094;4.870;2023-04-03T02:05:38;0.43;;;0.15;;
51495;SDS011;37572;52.094;4.870;2023-04-03T02:08:03;0.98;;;0.60;;
51495;SDS011;37572;52.094;4.870;2023-04-03T02:10:29;0.85;;;0.60;;
51495;SDS011;37572;52.094;4.870;2023-04-03T02:12:54;0.80;;;0.20;;
51495;SDS011;37572;52.094;4.870;2023-04-03T02:15:19;0.73;;;0.22;;
51495;SDS011;37572;52.094;4.870;2023-04-03T02:17:45;0.50;;;0.28;;
51495;SDS011;37572;52.094;4.870;2023-04-03T02:20:10;0.90;;;0.30;;
51495;SDS011;37572;52.094;4.870;2023-04-03T02:22:35;0.60;;;0.30;;
51495;SDS011;37572;52.094;4.870;2023-04-03T02:25:00;0.80;;;0.43;;
51495;SDS011;37572;52.094;4.870;2023-04-03T02:27:26;0.40;;;0.10;;
51495;SDS011;37572;52.094;4.870;2023-04-03T02:29:52;0.88;;;0.20;;
51495;SDS011;37572;52.094;4.870;2023-04-03T02:32:17;0.87;;;0.50;;
51495;SDS011;37572;52.094;4.870;2023-04-03T02:34:42;1.10;;;0.30;;
51495;SDS011;37572;52.094;4.870;2023-04-03T02:37:07;1.20;;;0.40;;
51495;SDS011;37572;52.094;4.870;2023-04-03T02:39:33;1.17;;;0.43;;
51495;SDS011;37572;52.094;4.870;2023-04-03T02:41:58;1.63;;;0.40;;
51495;SDS011;37572;52.094;4.870;2023-04-03T02:44:24;0.55;;;0.22;;
51495;SDS011;37572;52.094;4.870;2023-04-03T02:46:49;0.85;;;0.20;;
51495;SDS011;37572;52.094;4.870;2023-04-03T02:49:15;1.27;;;0.30;;
51495;SDS011;37572;52.094;4.870;2023-04-03T02:51:40;1.23;;;0.30;;
51495;SDS011;37572;52.094;4.870;2023-04-03T02:54:06;0.60;;;0.20;;
51495;SDS011;37572;52.094;4.870;2023-04-03T02:56:31;0.55;;;0.13;;
51495;SDS011;37572;52.094;4.870;2023-04-03T02:58:56;1.20;;;0.33;;
51495;SDS011;37572;52.094;4.870;2023-04-03T03:01:22;0.77;;;0.20;;
51495;SDS011;37572;52.094;4.870;2023-04-03T03:03:47;1.15;;;0.50;;
51495;SDS011;37572;52.094;4.870;2023-04-03T03:06:13;0.90;;;0.30;;
51495;SDS011;37572;52.094;4.870;2023-04-03T03:08:41;1.00;;;0.40;;
51495;SDS011;37572;52.094;4.870;2023-04-03T03:11:07;0.85;;;0.38;;
51495;SDS011;37572;52.094;4.870;2023-04-03T03:13:32;1.08;;;0.47;;
51495;SDS011;37572;52.094;4.870;2023-04-03T03:15:58;0.73;;;0.73;;
51495;SDS011;37572;52.094;4.870;2023-04-03T03:18:24;0.75;;;0.22;;
51495;SDS011;37572;52.094;4.870;2023-04-03T03:20:53;0.60;;;0.13;;
51495;SDS011;37572;52.094;4.870;2023-04-03T03:23:23;0.70;;;0.30;;
51495;SDS011;37572;52.094;4.870;2023-04-03T03:25:53;1.13;;;0.50;;
51495;SDS011;37572;52.094;4.870;2023-04-03T03:28:23;0.73;;;0.32;;
51495;SDS011;37572;52.094;4.870;2023-04-03T03:30:48;0.68;;;0.25;;
51495;SDS011;37572;52.094;4.870;2023-04-03T03:33:14;0.60;;;0.30;;
51495;SDS011;37572;52.094;4.870;2023-04-03T03:35:39;0.65;;;0.30;;
51495;SDS011;37572;52.094;4.870;2023-04-03T03:38:05;1.00;;;0.50;;
51495;SDS011;37572;52.094;4.870;2023-04-03T03:40:30;1.10;;;0.20;;
51495;SDS011;37572;52.094;4.870;2023-04-03T03:42:56;0.77;;;0.22;;
51495;SDS011;37572;52.094;4.870;2023-04-03T03:45:21;1.30;;;0.30;;
51495;SDS011;37572;52.094;4.870;2023-04-03T03:47:46;1.00;;;0.20;;
51495;SDS011;37572;52.094;4.870;2023-04-03T03:50:11;1.10;;;0.30;;
51495;SDS011;37572;52.094;4.870;2023-04-03T03:52:37;1.30;;;0.30;;
51495;SDS011;37572;52.094;4.870;2023-04-03T03:55:02;0.88;;;0.20;;
51495;SDS011;37572;52.094;4.870;2023-04-03T03:57:27;0.90;;;0.20;;
51495;SDS011;37572;52.094;4.870;2023-04-03T03:59:53;0.65;;;0.30;;
51495;SDS011;37572;52.094;4.870;2023-04-03T04:02:19;1.08;;;0.32;;
51495;SDS011;37572;52.094;4.870;2023-04-03T04:04:45;0.75;;;0.30;;
51495;SDS011;37572;52.094;4.870;2023-04-03T04:07:10;1.10;;;0.32;;
51495;SDS011;37572;52.094;4.870;2023-04-03T04:09:36;1.00;;;0.40;;
51495;SDS011;37572;52.094;4.870;2023-04-03T04:12:01;0.90;;;0.77;;
51495;SDS011;37572;52.094;4.870;2023-04-03T04:14:26;0.93;;;0.20;;
51495;SDS011;37572;52.094;4.870;2023-04-03T04:16:52;1.03;;;0.50;;
51495;SDS011;37572;52.094;4.870;2023-04-03T04:19:17;0.60;;;0.20;;
51495;SDS011;37572;52.094;4.870;2023-04-03T04:21:42;0.97;;;0.20;;
51495;SDS011;37572;52.094;4.870;2023-04-03T04:24:08;1.00;;;0.28;;
51495;SDS011;37572;52.094;4.870;2023-04-03T04:26:33;0.77;;;0.28;;
51495;SDS011;37572;52.094;4.870;2023-04-03T04:28:59;0.60;;;0.20;;
51495;SDS011;37572;52.094;4.870;2023-04-03T04:31:25;1.08;;;0.45;;
51495;SDS011;37572;52.094;4.870;2023-04-03T04:33:50;0.90;;;0.20;;
51495;SDS011;37572;52.094;4.870;2023-04-03T04:36:16;0.52;;;0.50;;
51495;SDS011;37572;52.094;4.870;2023-04-03T04:38:41;0.77;;;0.40;;
51495;SDS011;37572;52.094;4.870;2023-04-03T04:41:07;1.30;;;0.30;;
51495;SDS011;37572;52.094;4.870;2023-04-03T04:43:32;0.90;;;0.30;;
51495;SDS011;37572;52.094;4.870;2023-04-03T04:46:08;0.73;;;0.22;;
51495;SDS011;37572;52.094;4.870;2023-04-03T04:48:38;0.70;;;0.30;;
51495;SDS011;37572;52.094;4.870;2023-04-03T04:51:03;0.77;;;0.28;;
51495;SDS011;37572;52.094;4.870;2023-04-03T04:53:29;0.80;;;0.38;;
51495;SDS011;37572;52.094;4.870;2023-04-03T04:55:54;0.82;;;0.20;;
51495;SDS011;37572;52.094;4.870;2023-04-03T04:58:20;1.02;;;0.38;;
51495;SDS011;37572;52.094;4.870;2023-04-03T05:00:45;0.70;;;0.20;;
51495;SDS011;37572;52.094;4.870;2023-04-03T05:03:11;0.50;;;0.10;;
51495;SDS011;37572;52.094;4.870;2023-04-03T05:05:37;0.70;;;0.20;;
51495;SDS011;37572;52.094;4.870;2023-04-03T05:08:03;1.00;;;0.30;;
51495;SDS011;37572;52.094;4.870;2023-04-03T05:10:29;1.25;;;0.45;;
51495;SDS011;37572;52.094;4.870;2023-04-03T05:12:54;0.57;;;0.20;;
51495;SDS011;37572;52.094;4.870;2023-04-03T05:15:20;1.27;;;0.20;;
51495;SDS011;37572;52.094;4.870;2023-04-03T05:17:45;0.90;;;0.40;;
51495;SDS011;37572;52.094;4.870;2023-04-03T05:20:11;0.75;;;0.35;;
51495;SDS011;37572;52.094;4.870;2023-04-03T05:22:36;0.98;;;0.35;;
51495;SDS011;37572;52.094;4.870;2023-04-03T05:25:02;1.20;;;0.57;;
51495;SDS011;37572;52.094;4.870;2023-04-03T05:27:27;0.80;;;0.30;;
51495;SDS011;37572;52.094;4.870;2023-04-03T05:29:53;1.17;;;0.38;;
51495;SDS011;37572;52.094;4.870;2023-04-03T05:32:19;1.05;;;0.45;;
51495;SDS011;37572;52.094;4.870;2023-04-03T05:34:45;0.90;;;0.30;;
51495;SDS011;37572;52.094;4.870;2023-04-03T05:37:11;1.48;;;0.30;;
51495;SDS011;37572;52.094;4.870;2023-04-03T05:39:36;0.93;;;0.28;;
51495;SDS011;37572;52.094;4.870;2023-04-03T05:42:05;0.60;;;0.20;;
51495;SDS011;37572;52.094;4.870;2023-04-03T05:44:30;0.85;;;0.47;;
51495;SDS011;37572;52.094;4.870;2023-04-03T05:46:56;0.80;;;0.20;;
51495;SDS011;37572;52.094;4.870;2023-04-03T05:49:21;0.67;;;0.20;;
51495;SDS011;37572;52.094;4.870;2023-04-03T05:51:46;0.80;;;0.22;;
51495;SDS011;37572;52.094;4.870;2023-04-03T05:54:12;1.07;;;0.30;;
51495;SDS011;37572;52.094;4.870;2023-04-03T05:56:45;1.33;;;0.40;;
51495;SDS011;37572;52.094;4.870;2023-04-03T05:59:10;1.02;;;0.20;;
51495;SDS011;37572;52.094;4.870;2023-04-03T06:01:36;0.65;;;0.13;;
51495;SDS011;37572;52.094;4.870;2023-04-03T06:04:02;0.90;;;0.30;;
51495;SDS011;37572;52.094;4.870;2023-04-03T06:06:42;1.45;;;0.55;;
51495;SDS011;37572;52.094;4.870;2023-04-03T06:09:19;0.90;;;0.30;;
51495;SDS011;37572;52.094;4.870;2023-04-03T06:11:46;2.17;;;0.45;;
51495;SDS011;37572;52.094;4.870;2023-04-03T06:14:11;0.93;;;0.30;;
51495;SDS011;37572;52.094;4.870;2023-04-03T06:16:37;2.95;;;0.47;;
51495;SDS011;37572;52.094;4.870;2023-04-03T06:19:04;1.30;;;0.20;;
51495;SDS011;37572;52.094;4.870;2023-04-03T06:21:30;1.38;;;0.57;;
51495;SDS011;37572;52.094;4.870;2023-04-03T06:23:56;1.25;;;0.40;;
51495;SDS011;37572;52.094;4.870;2023-04-03T06:26:21;1.00;;;0.20;;
51495;SDS011;37572;52.094;4.870;2023-04-03T06:28:47;1.00;;;0.20;;
51495;SDS011;37572;52.094;4.870;2023-04-03T06:31:12;2.20;;;0.30;;
51495;SDS011;37572;52.094;4.870;2023-04-03T06:33:38;2.67;;;0.50;;
51495;SDS011;37572;52.094;4.870;2023-04-03T06:36:04;1.40;;;1.10;;
51495;SDS011;37572;52.094;4.870;2023-04-03T06:38:30;1.10;;;0.30;;
51495;SDS011;37572;52.094;4.870;2023-04-03T06:40:56;1.60;;;0.50;;
51495;SDS011;37572;52.094;4.870;2023-04-03T06:43:21;2.08;;;0.40;;
51495;SDS011;37572;52.094;4.870;2023-04-03T06:45:47;2.17;;;1.05;;
51495;SDS011;37572;52.094;4.870;2023-04-03T06:48:13;1.88;;;0.40;;
51495;SDS011;37572;52.094;4.870;2023-04-03T06:50:38;1.70;;;0.35;;
51495;SDS011;37572;52.094;4.870;2023-04-03T06:53:04;2.25;;;0.52;;
51495;SDS011;37572;52.094;4.870;2023-04-03T06:55:30;2.45;;;0.50;;
51495;SDS011;37572;52.094;4.870;2023-04-03T06:57:56;2.05;;;0.40;;
51495;SDS011;37572;52.094;4.870;2023-04-03T07:00:22;2.17;;;0.50;;
51495;SDS011;37572;52.094;4.870;2023-04-03T07:02:47;1.50;;;0.52;;
51495;SDS011;37572;52.094;4.870;2023-04-03T07:05:13;3.20;;;0.30;;
51495;SDS011;37572;52.094;4.870;2023-04-03T07:07:38;1.90;;;0.60;;
51495;SDS011;37572;52.094;4.870;2023-04-03T07:10:04;2.55;;;0.60;;
51495;SDS011;37572;52.094;4.870;2023-04-03T07:12:31;1.90;;;0.55;;
51495;SDS011;37572;52.094;4.870;2023-04-03T07:14:56;2.65;;;0.45;;
51495;SDS011;37572;52.094;4.870;2023-04-03T07:17:21;3.83;;;0.70;;
51495;SDS011;37572;52.094;4.870;2023-04-03T07:19:47;3.60;;;0.83;;
51495;SDS011;37572;52.094;4.870;2023-04-03T07:22:12;3.60;;;0.83;;
51495;SDS011;37572;52.094;4.870;2023-04-03T07:24:37;1.95;;;0.63;;
51495;SDS011;37572;52.094;4.870;2023-04-03T07:27:03;2.67;;;0.63;;
51495;SDS011;37572;52.094;4.870;2023-04-03T07:29:28;1.98;;;0.32;;
51495;SDS011;37572;52.094;4.870;2023-04-03T07:31:53;1.57;;;0.50;;
51495;SDS011;37572;52.094;4.870;2023-04-03T07:34:20;2.78;;;0.47;;
51495;SDS011;37572;52.094;4.870;2023-04-03T07:36:46;2.38;;;0.80;;
51495;SDS011;37572;52.094;4.870;2023-04-03T07:39:11;3.55;;;0.70;;
51495;SDS011;37572;52.094;4.870;2023-04-03T07:41:37;2.72;;;0.50;;
51495;SDS011;37572;52.094;4.870;2023-04-03T07:44:03;2.08;;;0.98;;
51495;SDS011;37572;52.094;4.870;2023-04-03T07:46:29;2.72;;;1.13;;
51495;SDS011;37572;52.094;4.870;2023-04-03T07:48:55;2.10;;;0.52;;
51495;SDS011;37572;52.094;4.870;2023-04-03T07:51:20;2.28;;;0.68;;
51495;SDS011;37572;52.094;4.870;2023-04-03T07:53:45;3.03;;;0.90;;
51495;SDS011;37572;52.094;4.870;2023-04-03T07:56:11;3.88;;;0.70;;
51495;SDS011;37572;52.094;4.870;2023-04-03T07:58:36;3.47;;;0.52;;
51495;SDS011;37572;52.094;4.870;2023-04-03T08:01:02;2.30;;;0.77;;
51495;SDS011;37572;52.094;4.870;2023-04-03T08:03:27;2.00;;;0.63;;
51495;SDS011;37572;52.094;4.870;2023-04-03T08:05:53;3.67;;;0.43;;
51495;SDS011;37572;52.094;4.870;2023-04-03T08:08:19;1.90;;;0.50;;
51495;SDS011;37572;52.094;4.870;2023-04-03T08:10:53;2.88;;;0.68;;
51495;SDS011;37572;52.094;4.870;2023-04-03T08:13:19;2.25;;;0.60;;
51495;SDS011;37572;52.094;4.870;2023-04-03T08:15:46;1.52;;;1.10;;
51495;SDS011;37572;52.094;4.870;2023-04-03T08:18:12;2.38;;;0.55;;
51495;SDS011;37572;52.094;4.870;2023-04-03T08:20:38;2.30;;;1.15;;
51495;SDS011;37572;52.094;4.870;2023-04-03T08:23:05;2.00;;;0.60;;
51495;SDS011;37572;52.094;4.870;2023-04-03T08:25:31;2.35;;;0.63;;
51495;SDS011;37572;52.094;4.870;2023-04-03T08:27:57;2.47;;;0.43;;
51495;SDS011;37572;52.094;4.870;2023-04-03T08:30:22;2.42;;;0.90;;
51495;SDS011;37572;52.094;4.870;2023-04-03T08:32:48;1.60;;;0.35;;
51495;SDS011;37572;52.094;4.870;2023-04-03T08:35:13;2.85;;;0.52;;
51495;SDS011;37572;52.094;4.870;2023-04-03T08:37:38;2.05;;;0.65;;
51495;SDS011;37572;52.094;4.870;2023-04-03T08:40:05;2.50;;;0.70;;
51495;SDS011;37572;52.094;4.870;2023-04-03T08:50:04;2.33;;;0.60;;
51495;SDS011;37572;52.094;4.870;2023-04-03T08:55:06;1.90;;;0.90;;
51495;SDS011;37572;52.094;4.870;2023-04-03T08:57:41;1.60;;;0.52;;
51495;SDS011;37572;52.094;4.870;2023-04-03T09:02:43;1.90;;;0.60;;
51495;SDS011;37572;52.094;4.870;2023-04-03T09:05:13;1.65;;;0.50;;
51495;SDS011;37572;52.094;4.870;2023-04-03T09:07:44;2.90;;;0.60;;
51495;SDS011;37572;52.094;4.870;2023-04-03T09:10:13;1.48;;;0.40;;
51495;SDS011;37572;52.094;4.870;2023-04-03T09:12:49;2.55;;;0.57;;
51495;SDS011;37572;52.094;4.870;2023-04-03T09:15:26;2.50;;;0.40;;
51495;SDS011;37572;52.094;4.870;2023-04-03T09:18:15;2.47;;;0.88;;
51495;SDS011;37572;52.094;4.870;2023-04-03T09:23:41;1.83;;;0.40;;
51495;SDS011;37572;52.094;4.870;2023-04-03T09:26:17;3.50;;;0.60;;
51495;SDS011;37572;52.094;4.870;2023-04-03T09:28:46;1.45;;;0.40;;
51495;SDS011;37572;52.094;4.870;2023-04-03T09:31:16;1.35;;;0.32;;
51495;SDS011;37572;52.094;4.870;2023-04-03T09:33:46;3.05;;;0.70;;
51495;SDS011;37572;52.094;4.870;2023-04-03T09:36:33;1.67;;;0.35;;
51495;SDS011;37572;52.094;4.870;2023-04-03T09:39:18;1.13;;;0.38;;
51495;SDS011;37572;52.094;4.870;2023-04-03T09:44:44;1.25;;;0.43;;
51495;SDS011;37572;52.094;4.870;2023-04-03T09:49:50;1.02;;;0.20;;
51495;SDS011;37572;52.094;4.870;2023-04-03T09:52:33;1.00;;;0.35;;
51495;SDS011;37572;52.094;4.870;2023-04-03T09:55:06;2.00;;;0.50;;
51495;SDS011;37572;52.094;4.870;2023-04-03T09:58:03;1.15;;;0.35;;
51495;SDS011;37572;52.094;4.870;2023-04-03T10:00:38;2.15;;;0.45;;
51495;SDS011;37572;52.094;4.870;2023-04-03T10:03:05;2.58;;;0.50;;
51495;SDS011;37572;52.094;4.870;2023-04-03T10:05:49;1.63;;;0.50;;
51495;SDS011;37572;52.094;4.870;2023-04-03T10:10:42;1.30;;;0.30;;
51495;SDS011;37572;52.094;4.870;2023-04-03T10:15:40;1.17;;;0.35;;
51495;SDS011;37572;52.094;4.870;2023-04-03T10:21:19;1.67;;;0.30;;
51495;SDS011;37572;52.094;4.870;2023-04-03T10:35:25;0.90;;;0.30;;
51495;SDS011;37572;52.094;4.870;2023-04-03T10:37:59;1.33;;;0.20;;
51495;SDS011;37572;52.094;4.870;2023-04-03T10:43:33;1.73;;;0.40;;
51495;SDS011;37572;52.094;4.870;2023-04-03T10:49:05;1.30;;;0.30;;
51495;SDS011;37572;52.094;4.870;2023-04-03T10:51:40;1.95;;;0.30;;
51495;SDS011;37572;52.094;4.870;2023-04-03T10:54:25;1.20;;;0.30;;
51495;SDS011;37572;52.094;4.870;2023-04-03T10:56:57;3.58;;;0.38;;
51495;SDS011;37572;52.094;4.870;2023-04-03T10:59:32;2.00;;;0.30;;
51495;SDS011;37572;52.094;4.870;2023-04-03T11:04:53;1.50;;;0.40;;
51495;SDS011;37572;52.094;4.870;2023-04-03T11:07:26;1.02;;;0.20;;
51495;SDS011;37572;52.094;4.870;2023-04-03T11:09:57;1.73;;;0.28;;
51495;SDS011;37572;52.094;4.870;2023-04-03T11:15:03;1.27;;;0.30;;
51495;SDS011;37572;52.094;4.870;2023-04-03T11:17:36;1.30;;;0.30;;
51495;SDS011;37572;52.094;4.870;2023-04-03T11:25:28;0.90;;;0.20;;
51495;SDS011;37572;52.094;4.870;2023-04-03T11:28:01;1.40;;;0.30;;
51495;SDS011;37572;52.094;4.870;2023-04-03T11:36:31;1.10;;;0.20;;
51495;SDS011;37572;52.094;4.870;2023-04-03T11:41:55;0.95;;;0.40;;
51495;SDS011;37572;52.094;4.870;2023-04-03T11:47:44;2.42;;;0.32;;
51495;SDS011;37572;52.094;4.870;2023-04-03T11:55:44;1.77;;;0.30;;
51495;SDS011;37572;52.094;4.870;2023-04-03T11:58:14;1.98;;;0.30;;
51495;SDS011;37572;52.094;4.870;2023-04-03T12:04:07;1.17;;;0.30;;
51495;SDS011;37572;52.094;4.870;2023-04-03T12:09:02;0.95;;;0.38;;
51495;SDS011;37572;52.094;4.870;2023-04-03T12:11:31;0.95;;;0.30;;
51495;SDS011;37572;52.094;4.870;2023-04-03T12:35:29;1.33;;;0.45;;
51495;SDS011;37572;52.094;4.870;2023-04-03T12:41:03;1.90;;;0.73;;
51495;SDS011;37572;52.094;4.870;2023-04-03T12:46:46;1.50;;;0.22;;
51495;SDS011;37572;52.094;4.870;2023-04-03T12:51:48;1.30;;;0.60;;
51495;SDS011;37572;52.094;4.870;2023-04-03T12:54:19;1.30;;;0.40;;
51495;SDS011;37572;52.094;4.870;2023-04-03T12:56:49;2.38;;;0.52;;
51495;SDS011;37572;52.094;4.870;2023-04-03T12:59:22;0.85;;;0.32;;
51495;SDS011;37572;52.094;4.870;2023-04-03T13:02:01;1.23;;;0.40;;
51495;SDS011;37572;52.094;4.870;2023-04-03T13:04:27;1.08;;;0.30;;
51495;SDS011;37572;52.094;4.870;2023-04-03T13:06:55;1.73;;;0.35;;
51495;SDS011;37572;52.094;4.870;2023-04-03T13:11:48;1.08;;;0.30;;
51495;SDS011;37572;52.094;4.870;2023-04-03T13:14:21;1.85;;;0.35;;
51495;SDS011;37572;52.094;4.870;2023-04-03T13:17:03;1.10;;;0.15;;
51495;SDS011;37572;52.094;4.870;2023-04-03T13:19:35;1.55;;;0.60;;
51495;SDS011;37572;52.094;4.870;2023-04-03T13:22:02;3.60;;;0.40;;
51495;SDS011;37572;52.094;4.870;2023-04-03T13:24:31;1.33;;;0.47;;
51495;SDS011;37572;52.094;4.870;2023-04-03T13:27:00;4.13;;;0.60;;
51495;SDS011;37572;52.094;4.870;2023-04-03T13:29:28;1.20;;;0.28;;
51495;SDS011;37572;52.094;4.870;2023-04-03T13:31:56;1.63;;;0.30;;
51495;SDS011;37572;52.094;4.870;2023-04-03T13:34:23;1.60;;;0.80;;
51495;SDS011;37572;52.094;4.870;2023-04-03T13:41:44;5.43;;;0.67;;
51495;SDS011;37572;52.094;4.870;2023-04-03T13:46:47;2.58;;;0.50;;
51495;SDS011;37572;52.094;4.870;2023-04-03T13:49:36;1.45;;;0.43;;
51495;SDS011;37572;52.094;4.870;2023-04-03T13:52:21;2.28;;;0.30;;
51495;SDS011;37572;52.094;4.870;2023-04-03T13:54:47;2.97;;;0.40;;
51495;SDS011;37572;52.094;4.870;2023-04-03T13:57:18;1.33;;;0.20;;
51495;SDS011;37572;52.094;4.870;2023-04-03T13:59:43;2.45;;;0.20;;
51495;SDS011;37572;52.094;4.870;2023-04-03T14:07:08;1.50;;;0.17;;
51495;SDS011;37572;52.094;4.870;2023-04-03T14:09:33;3.10;;;0.20;;
51495;SDS011;37572;52.094;4.870;2023-04-03T14:12:02;1.73;;;0.17;;
51495;SDS011;37572;52.094;4.870;2023-04-03T14:14:33;0.90;;;0.30;;
51495;SDS011;37572;52.094;4.870;2023-04-03T14:17:02;0.80;;;0.20;;
51495;SDS011;37572;52.094;4.870;2023-04-03T14:19:35;1.55;;;0.22;;
51495;SDS011;37572;52.094;4.870;2023-04-03T14:22:05;1.25;;;0.30;;
51495;SDS011;37572;52.094;4.870;2023-04-03T14:24:37;1.70;;;0.30;;
51495;SDS011;37572;52.094;4.870;2023-04-03T14:27:05;1.13;;;0.43;;
51495;SDS011;37572;52.094;4.870;2023-04-03T14:29:40;1.75;;;0.30;;
51495;SDS011;37572;52.094;4.870;2023-04-03T14:32:06;1.70;;;0.40;;
51495;SDS011;37572;52.094;4.870;2023-04-03T14:34:31;0.98;;;0.32;;
51495;SDS011;37572;52.094;4.870;2023-04-03T14:36:56;2.75;;;0.22;;
51495;SDS011;37572;52.094;4.870;2023-04-03T14:39:22;0.93;;;0.10;;
51495;SDS011;37572;52.094;4.870;2023-04-03T14:41:47;0.80;;;0.20;;
51495;SDS011;37572;52.094;4.870;2023-04-03T14:44:13;0.50;;;0.10;;
51495;SDS011;37572;52.094;4.870;2023-04-03T14:46:39;1.83;;;0.10;;
51495;SDS011;37572;52.094;4.870;2023-04-03T14:49:20;1.00;;;0.20;;
51495;SDS011;37572;52.094;4.870;2023-04-03T14:51:48;1.10;;;0.40;;
51495;SDS011;37572;52.094;4.870;2023-04-03T14:54:16;1.45;;;0.20;;
51495;SDS011;37572;52.094;4.870;2023-04-03T14:56:44;0.93;;;0.20;;
51495;SDS011;37572;52.094;4.870;2023-04-03T14:59:11;1.75;;;0.38;;
51495;SDS011;37572;52.094;4.870;2023-04-03T15:01:38;1.42;;;0.30;;
51495;SDS011;37572;52.094;4.870;2023-04-03T15:04:13;0.90;;;0.30;;
51495;SDS011;37572;52.094;4.870;2023-04-03T15:06:44;1.88;;;0.28;;
51495;SDS011;37572;52.094;4.870;2023-04-03T15:09:27;1.13;;;0.30;;
51495;SDS011;37572;52.094;4.870;2023-04-03T15:11:54;1.73;;;1.33;;
51495;SDS011;37572;52.094;4.870;2023-04-03T15:14:19;1.10;;;0.30;;
51495;SDS011;37572;52.094;4.870;2023-04-03T15:16:45;1.13;;;0.40;;
51495;SDS011;37572;52.094;4.870;2023-04-03T15:19:11;0.88;;;0.10;;
51495;SDS011;37572;52.094;4.870;2023-04-03T15:21:37;0.70;;;0.20;;
51495;SDS011;37572;52.094;4.870;2023-04-03T15:24:03;0.93;;;0.20;;
51495;SDS011;37572;52.094;4.870;2023-04-03T15:26:29;1.02;;;0.40;;
51495;SDS011;37572;52.094;4.870;2023-04-03T15:28:54;0.52;;;0.10;;
51495;SDS011;37572;52.094;4.870;2023-04-03T15:31:20;0.93;;;0.10;;
51495;SDS011;37572;52.094;4.870;2023-04-03T15:33:45;1.35;;;0.25;;
51495;SDS011;37572;52.094;4.870;2023-04-03T15:36:10;0.45;;;0.10;;
51495;SDS011;37572;52.094;4.870;2023-04-03T15:38:36;0.30;;;0.10;;
51495;SDS011;37572;52.094;4.870;2023-04-03T15:41:03;1.15;;;0.20;;
51495;SDS011;37572;52.094;4.870;2023-04-03T15:43:28;0.50;;;0.15;;
51495;SDS011;37572;52.094;4.870;2023-04-03T15:45:55;0.38;;;0.20;;
51495;SDS011;37572;52.094;4.870;2023-04-03T15:48:22;0.82;;;0.47;;
51495;SDS011;37572;52.094;4.870;2023-04-03T15:50:47;0.43;;;0.10;;
51495;SDS011;37572;52.094;4.870;2023-04-03T15:53:13;0.63;;;0.10;;
51495;SDS011;37572;52.094;4.870;2023-04-03T15:55:38;0.40;;;0.10;;
51495;SDS011;37572;52.094;4.870;2023-04-03T15:58:04;0.60;;;0.10;;
51495;SDS011;37572;52.094;4.870;2023-04-03T16:00:30;0.82;;;0.20;;
51495;SDS011;37572;52.094;4.870;2023-04-03T16:02:57;1.80;;;0.10;;
51495;SDS011;37572;52.094;4.870;2023-04-03T16:05:26;0.35;;;0.10;;
51495;SDS011;37572;52.094;4.870;2023-04-03T16:07:52;0.45;;;0.13;;
51495;SDS011;37572;52.094;4.870;2023-04-03T16:10:18;0.40;;;0.10;;
51495;SDS011;37572;52.094;4.870;2023-04-03T16:12:44;0.47;;;0.10;;
51495;SDS011;37572;52.094;4.870;2023-04-03T16:15:10;0.43;;;0.10;;
51495;SDS011;37572;52.094;4.870;2023-04-03T16:17:38;0.50;;;0.10;;
51495;SDS011;37572;52.094;4.870;2023-04-03T16:20:06;0.52;;;0.20;;
51495;SDS011;37572;52.094;4.870;2023-04-03T16:22:32;0.80;;;0.50;;
51495;SDS011;37572;52.094;4.870;2023-04-03T16:24:58;0.40;;;0.10;;
51495;SDS011;37572;52.094;4.870;2023-04-03T16:27:23;0.43;;;0.10;;
51495;SDS011;37572;52.094;4.870;2023-04-03T16:29:53;0.28;;;0.10;;
51495;SDS011;37572;52.094;4.870;2023-04-03T16:32:20;0.52;;;0.15;;
51495;SDS011;37572;52.094;4.870;2023-04-03T16:34:46;0.60;;;0.13;;
51495;SDS011;37572;52.094;4.870;2023-04-03T16:37:11;0.35;;;0.10;;
51495;SDS011;37572;52.094;4.870;2023-04-03T16:39:36;0.28;;;0.10;;
51495;SDS011;37572;52.094;4.870;2023-04-03T16:42:02;0.70;;;0.40;;
51495;SDS011;37572;52.094;4.870;2023-04-03T16:44:27;0.22;;;0.00;;
51495;SDS011;37572;52.094;4.870;2023-04-03T16:46:52;0.25;;;0.13;;
51495;SDS011;37572;52.094;4.870;2023-04-03T16:49:18;0.10;;;0.00;;
51495;SDS011;37572;52.094;4.870;2023-04-03T16:51:43;0.90;;;0.10;;
51495;SDS011;37572;52.094;4.870;2023-04-03T16:54:09;0.08;;;0.00;;
51495;SDS011;37572;52.094;4.870;2023-04-03T16:56:37;0.20;;;0.00;;
51495;SDS011;37572;52.094;4.870;2023-04-03T16:59:03;0.30;;;0.00;;
51495;SDS011;37572;52.094;4.870;2023-04-03T17:01:28;0.45;;;0.10;;
51495;SDS011;37572;52.094;4.870;2023-04-03T17:03:53;0.30;;;0.10;;